Phnom Penh International Airport
VDPP : now visible

Airfield :











YOU CAN JOIN US ON...

 
LOGIN :

Register | Disclaimer

   EN    FR    IT 

 









Legend :    VFR   Marginal VFR   IFR   Intensive IFR   Very Intensive IFR
Visi :
Ceiling :
>= 8 km
>= 3000ft
5 to 8 km
1000 to 3000 ft
1500m to 5 km
500 to 1000 ft
800 to 1500m
200 to 500 ft
< 800m
< 200 ft
Symbols :   Thunderstorms  Fog  Heavy snow  Heavy precipitations  Wind > 20 kt






- Airport Elevation : 40 ft
- IATA code : PNH


VDPP - Phnom Penh International

CURRENT METAR :
  • 270030Z 12002KT 9999 FEW015 SCT040 29/25 Q1010

EXPIRED METARs :
  • 270000Z 07003KT 9999 FEW015 SCT040 28/24 Q1010
  • 262330Z 08005KT 9999 SCT015 SCT040 28/24 Q1009
  • 262300Z 08006KT 9000 SCT015 SCT040 27/24 Q1009
  • 262230Z 07005KT 9000 SCT015 SCT040 27/24 Q1009
  • 262200Z 08004KT 9000 SCT015 SCT040 27/25 Q1009
  • 262130Z 08004KT 9000 SCT015 SCT040 27/25 Q1009

TAF TAF VDPP
Valid from the 27 at 00:00 until the 27 at 18:00 UTC


262300Z 2700/2718 22007KT 9999 SCT017 SCT040
TEMPO 2706/2711 SCT015 FEW017CB
VDPP FIR / Asia



MET'MAP, your aeronautical weather chart ! - Copyright ORBIFLY December 2007 - Disclaimer

ORBIFLY MET'MAP TEAM :

Programming & Development : Alexandra Zaïnal
Concept & original design : Baudouin d'Aumeries
Assistance for programming : Marc-Olivier Méhu
Technical & hardware support : Manuel Goepfert

Contact : metmap@orbifly.com




SOURCES & CREDITS :

   NOAA       Earth
Advisory